Time;durP1;ratioP1;P1;durP2;ratioP2;P2;SDS_P1;SDS_P2;PMS_P1;PMS_P2;Temp;Humidity;BMP_temperature;BMP_pressure;BME280_temperature;BME280_humidity;BME280_pressure;Samples;Min_cycle;Max_cycle;Signal;HPM_P1;HPM_P2
2022/08/25 00:00:20;;;;;;;;;;;;;;;;;;5075899;28;20307;-82
2022/08/25 00:02:45;;;;;;;;;;;;;;;;;;5076702;28;19955;-82
2022/08/25 00:05:10;;;;;;;;;;;;;;;;;;5094365;28;20231;-81
2022/08/25 00:07:36;;;;;;;;;;;;;;;;;;5093210;28;20377;-81
2022/08/25 00:10:01;;;;;;;;;;;;;;;;;;5093385;28;19956;-81
2022/08/25 00:12:26;;;;;;;;;;;;;;;;;;5093251;28;20284;-83
2022/08/25 00:14:52;;;;;;;;;;;;;;;;;;5092931;28;20334;-84
2022/08/25 00:17:18;;;;;;;;;;;;;;;;;;5094308;28;19913;-82
2022/08/25 00:19:43;;;;;;;;;;;;;;;;;;5076655;28;19916;-82
2022/08/25 00:22:09;;;;;;;;;;;;;;;;;;5076133;28;19912;-82
2022/08/25 00:24:34;;;;;;;;;;;;;;;;;;5094247;28;19923;-82
2022/08/25 00:27:00;;;;;;;;;;;;;;;;;;5076057;28;19916;-82
2022/08/25 00:29:26;;;;;;;;;;;;;;;;;;5076299;28;19933;-84
2022/08/25 00:31:52;;;;;;;;;;;;;;;;;;5094161;28;20068;-81
2022/08/25 00:34:18;;;;;;;;;;;;;;;;;;5093214;28;20326;-83
2022/08/25 00:36:44;;;;;;;;;;;;;;;;;;5092919;28;19938;-83
2022/08/25 00:39:09;;;;;;;;;;;;;;;;;;5093281;28;19916;-83
2022/08/25 00:41:35;;;;;;;;;;;;;;;;;;5093035;28;19970;-83
2022/08/25 00:44:00;;;;;;;;;;;;;;;;;;5092687;28;19950;-81
2022/08/25 00:46:28;;;;;;;;;;;;;;;;;;5076178;28;19916;-81
2022/08/25 00:48:58;;;;;;;;;;;;;;;;;;5076285;28;19916;-82
2022/08/25 00:51:32;;;;;;;;;;;;;;;;;;5076154;28;19938;-83
2022/08/25 00:53:57;;;;;;;;;;;;;;;;;;5081669;28;19923;-82
2022/08/25 00:56:23;;;;;;;;;;;;;;;;;;5085154;28;19916;-82
2022/08/25 00:58:48;;;;;;;;;;;;;;;;;;5108617;28;19922;-82
2022/08/25 01:01:13;;;;;;;;;;;;;;;;;;5123007;28;19924;-82
2022/08/25 01:03:39;;;;;;;;;;;;;;;;;;5118052;28;19920;-82
2022/08/25 01:06:04;;;;;;;;;;;;;;;;;;5104483;28;19962;-82
2022/08/25 01:08:30;;;;;;;;;;;;;;;;;;5104637;28;19919;-82
2022/08/25 01:10:57;;;;;;;;;;;;;;;;;;5121786;28;19927;-83
2022/08/25 01:13:27;;;;;;;;;;;;;;;;;;5117378;28;19924;-82
2022/08/25 01:15:54;;;;;;;;;;;;;;;;;;5101363;28;19915;-82
2022/08/25 01:18:20;;;;;;;;;;;;;;;;;;5100881;28;19916;-81
2022/08/25 01:20:49;;;;;;;;;;;;;;;;;;5099692;28;19916;-82
2022/08/25 01:23:15;;;;;;;;;;;;;;;;;;5099517;28;19970;-81
2022/08/25 01:25:43;;;;;;;;;;;;;;;;;;5082673;28;20345;-82
2022/08/25 01:28:09;;;;;;;;;;;;;;;;;;5082266;28;19972;-82
2022/08/25 01:30:34;;;;;;;;;;;;;;;;;;5099297;28;19916;-82
2022/08/25 01:33:09;;;;;;;;;;;;;;;;;;5099726;28;19962;-82
2022/08/25 01:35:34;;;;;;;;;;;;;;;;;;5082531;28;19972;-82
2022/08/25 01:38:00;;;;;;;;;;;;;;;;;;5099561;28;20291;-83
2022/08/25 01:40:26;;;;;;;;;;;;;;;;;;5099632;28;19916;-81
2022/08/25 01:43:01;;;;;;;;;;;;;;;;;;5098946;28;19916;-83
2022/08/25 01:45:26;;;;;;;;;;;;;;;;;;5082549;28;19916;-82
2022/08/25 01:47:52;;;;;;;;;;;;;;;;;;5098987;28;20306;-82
2022/08/25 01:50:17;;;;;;;;;;;;;;;;;;5117062;28;20268;-82
2022/08/25 01:52:49;;;;;;;;;;;;;;;;;;5098959;28;19916;-82
2022/08/25 01:55:15;;;;;;;;;;;;;;;;;;5098991;28;20002;-83
2022/08/25 01:57:47;;;;;;;;;;;;;;;;;;5098939;28;20298;-82
2022/08/25 02:00:13;;;;;;;;;;;;;;;;;;5098875;28;19920;-82
2022/08/25 02:02:38;;;;;;;;;;;;;;;;;;5098821;28;19916;-82
2022/08/25 02:05:04;;;;;;;;;;;;;;;;;;5098759;28;19923;-83
2022/08/25 02:07:30;;;;;;;;;;;;;;;;;;5098677;28;20409;-83
2022/08/25 02:09:55;;;;;;;;;;;;;;;;;;5116870;28;19946;-82
2022/08/25 02:12:20;;;;;;;;;;;;;;;;;;5116225;28;19955;-82
2022/08/25 02:14:45;;;;;;;;;;;;;;;;;;5116736;28;19951;-82
2022/08/25 02:17:11;;;;;;;;;;;;;;;;;;5116620;28;19919;-82
2022/08/25 02:19:36;;;;;;;;;;;;;;;;;;5081759;28;19923;-82
2022/08/25 02:22:02;;;;;;;;;;;;;;;;;;5098609;28;19916;-82
2022/08/25 02:24:27;;;;;;;;;;;;;;;;;;5098472;28;19922;-82
2022/08/25 02:26:53;;;;;;;;;;;;;;;;;;5081241;28;19916;-83
2022/08/25 02:29:18;;;;;;;;;;;;;;;;;;5098150;28;19915;-82
2022/08/25 02:31:43;;;;;;;;;;;;;;;;;;5116255;28;19916;-82
2022/08/25 02:34:09;;;;;;;;;;;;;;;;;;5098095;28;20534;-83
2022/08/25 02:36:34;;;;;;;;;;;;;;;;;;5081264;28;19916;-83
2022/08/25 02:39:00;;;;;;;;;;;;;;;;;;5080996;28;19990;-82
2022/08/25 02:41:26;;;;;;;;;;;;;;;;;;5097603;28;20337;-82
2022/08/25 02:43:51;;;;;;;;;;;;;;;;;;5097985;28;19923;-82
2022/08/25 02:46:17;;;;;;;;;;;;;;;;;;5097869;28;19965;-83
2022/08/25 02:48:43;;;;;;;;;;;;;;;;;;5097874;28;19923;-83
2022/08/25 02:51:08;;;;;;;;;;;;;;;;;;5098072;28;19916;-83
2022/08/25 02:53:34;;;;;;;;;;;;;;;;;;5115891;28;20377;-82
2022/08/25 02:55:59;;;;;;;;;;;;;;;;;;5097753;28;19923;-83
2022/08/25 02:58:25;;;;;;;;;;;;;;;;;;5115861;28;19938;-83
2022/08/25 03:00:50;;;;;;;;;;;;;;;;;;5115889;28;20348;-83
2022/08/25 03:03:15;;;;;;;;;;;;;;;;;;5097493;28;19915;-83
2022/08/25 03:05:41;;;;;;;;;;;;;;;;;;5115581;28;19955;-82
2022/08/25 03:08:06;;;;;;;;;;;;;;;;;;5080376;28;19923;-81
2022/08/25 03:10:31;;;;;;;;;;;;;;;;;;5080499;28;19916;-82
2022/08/25 03:12:57;;;;;;;;;;;;;;;;;;5080348;28;19922;-82
2022/08/25 03:15:24;;;;;;;;;;;;;;;;;;5115463;28;20306;-82
2022/08/25 03:17:49;;;;;;;;;;;;;;;;;;5080859;28;19924;-82
2022/08/25 03:20:15;;;;;;;;;;;;;;;;;;5097133;28;19916;-81
2022/08/25 03:22:41;;;;;;;;;;;;;;;;;;5080745;28;20345;-83
2022/08/25 03:27:50;;;;;;;;;;;;;;;;;;5099991;28;19958;-83
2022/08/25 03:30:16;;;;;;;;;;;;;;;;;;5097367;28;19915;-83
2022/08/25 03:32:41;;;;;;;;;;;;;;;;;;5115504;28;19964;-82
2022/08/25 03:35:06;;;;;;;;;;;;;;;;;;5097165;28;19939;-82
2022/08/25 03:37:32;;;;;;;;;;;;;;;;;;5096612;28;19945;-83
2022/08/25 03:39:57;;;;;;;;;;;;;;;;;;5080264;28;19963;-83
2022/08/25 03:42:23;;;;;;;;;;;;;;;;;;5079946;28;19924;-83
2022/08/25 03:44:49;;;;;;;;;;;;;;;;;;5096983;28;19946;-82
2022/08/25 03:47:14;;;;;;;;;;;;;;;;;;5079827;28;19963;-82
2022/08/25 03:49:40;;;;;;;;;;;;;;;;;;5080235;28;19938;-83
2022/08/25 03:52:05;;;;;;;;;;;;;;;;;;5079883;28;19920;-83
2022/08/25 03:54:30;;;;;;;;;;;;;;;;;;5096698;28;19947;-83
2022/08/25 03:56:56;;;;;;;;;;;;;;;;;;5096871;28;20334;-83
2022/08/25 03:59:21;;;;;;;;;;;;;;;;;;5096406;28;19915;-82
2022/08/25 04:01:46;;;;;;;;;;;;;;;;;;5114741;28;19930;-82
2022/08/25 04:04:12;;;;;;;;;;;;;;;;;;5096803;28;19973;-82
2022/08/25 04:06:38;;;;;;;;;;;;;;;;;;5079988;28;19923;-82
2022/08/25 04:09:03;;;;;;;;;;;;;;;;;;5096651;28;19939;-83
2022/08/25 04:11:28;;;;;;;;;;;;;;;;;;5096950;28;19916;-83
2022/08/25 04:13:57;;;;;;;;;;;;;;;;;;5096687;28;19965;-83
2022/08/25 04:16:23;;;;;;;;;;;;;;;;;;5114657;28;19916;-82
2022/08/25 04:18:49;;;;;;;;;;;;;;;;;;5096388;28;19938;-82
2022/08/25 04:21:14;;;;;;;;;;;;;;;;;;5096245;28;20019;-82
2022/08/25 04:23:40;;;;;;;;;;;;;;;;;;5096439;28;19951;-82
2022/08/25 04:26:08;;;;;;;;;;;;;;;;;;5079641;28;20345;-81
2022/08/25 04:28:34;;;;;;;;;;;;;;;;;;5114483;28;20293;-82
2022/08/25 04:30:59;;;;;;;;;;;;;;;;;;5096452;28;19915;-83
2022/08/25 04:33:25;;;;;;;;;;;;;;;;;;5096532;28;19965;-82
2022/08/25 04:35:50;;;;;;;;;;;;;;;;;;5081458;28;20037;-82
2022/08/25 04:38:15;;;;;;;;;;;;;;;;;;5118637;28;20385;-82
2022/08/25 04:40:41;;;;;;;;;;;;;;;;;;5118544;28;19920;-82
2022/08/25 04:43:06;;;;;;;;;;;;;;;;;;5100269;28;19994;-83
2022/08/25 04:45:35;;;;;;;;;;;;;;;;;;5083081;28;20351;-82
2022/08/25 04:48:00;;;;;;;;;;;;;;;;;;5083144;28;19916;-82
2022/08/25 04:50:26;;;;;;;;;;;;;;;;;;5117993;28;20003;-81
2022/08/25 04:52:51;;;;;;;;;;;;;;;;;;5100471;28;19916;-82
2022/08/25 04:55:17;;;;;;;;;;;;;;;;;;5099935;28;19916;-82
2022/08/25 04:57:42;;;;;;;;;;;;;;;;;;5083326;28;19916;-82
2022/08/25 05:00:08;;;;;;;;;;;;;;;;;;5083166;28;20325;-82
2022/08/25 05:02:33;;;;;;;;;;;;;;;;;;5099768;28;19915;-82
2022/08/25 05:05:00;;;;;;;;;;;;;;;;;;5099645;28;20597;-82
2022/08/25 05:07:25;;;;;;;;;;;;;;;;;;5083348;28;20424;-83
2022/08/25 05:09:50;;;;;;;;;;;;;;;;;;5100073;28;20004;-82
2022/08/25 05:12:16;;;;;;;;;;;;;;;;;;5099687;28;19967;-82
2022/08/25 05:14:41;;;;;;;;;;;;;;;;;;5082709;28;19957;-83
2022/08/25 05:17:06;;;;;;;;;;;;;;;;;;5099638;28;19916;-83
2022/08/25 05:19:32;;;;;;;;;;;;;;;;;;5099504;28;19923;-82
2022/08/25 05:21:57;;;;;;;;;;;;;;;;;;5117738;28;19916;-83
2022/08/25 05:24:23;;;;;;;;;;;;;;;;;;5099497;28;19916;-83
2022/08/25 05:26:48;;;;;;;;;;;;;;;;;;5082687;28;19936;-83
2022/08/25 05:29:14;;;;;;;;;;;;;;;;;;5117595;28;19922;-83
2022/08/25 05:31:39;;;;;;;;;;;;;;;;;;5099452;28;20398;-81
2022/08/25 05:34:05;;;;;;;;;;;;;;;;;;5099096;28;19951;-83
2022/08/25 05:36:32;;;;;;;;;;;;;;;;;;5099296;28;19915;-82
2022/08/25 05:38:57;;;;;;;;;;;;;;;;;;5082789;28;19912;-84
2022/08/25 05:41:25;;;;;;;;;;;;;;;;;;5082549;28;20023;-83
2022/08/25 05:43:50;;;;;;;;;;;;;;;;;;5082444;28;19959;-83
2022/08/25 05:46:16;;;;;;;;;;;;;;;;;;5098946;28;19916;-82
2022/08/25 05:48:41;;;;;;;;;;;;;;;;;;5081553;28;20333;-79
2022/08/25 05:51:08;;;;;;;;;;;;;;;;;;5117007;28;19915;-77
2022/08/25 05:53:34;;;;;;;;;;;;;;;;;;5099083;28;19972;-77
2022/08/25 05:55:59;;;;;;;;;;;;;;;;;;5100034;28;19916;-77
2022/08/25 05:58:27;;;;;;;;;;;;;;;;;;5116835;28;19916;-76
2022/08/25 06:00:52;;;;;;;;;;;;;;;;;;5098874;28;20327;-76
2022/08/25 06:03:17;;;;;;;;;;;;;;;;;;5098402;28;19945;-78
2022/08/25 06:05:43;;;;;;;;;;;;;;;;;;5098459;28;19919;-77
2022/08/25 06:08:08;;;;;;;;;;;;;;;;;;5116814;28;19920;-77
2022/08/25 06:10:34;;;;;;;;;;;;;;;;;;5081697;28;20836;-77
2022/08/25 06:12:59;;;;;;;;;;;;;;;;;;5098433;28;19916;-77
2022/08/25 06:15:25;;;;;;;;;;;;;;;;;;5098989;28;19915;-76
2022/08/25 06:17:50;;;;;;;;;;;;;;;;;;5116231;28;19918;-77
2022/08/25 06:20:17;;;;;;;;;;;;;;;;;;5098329;28;19916;-78
2022/08/25 06:22:42;;;;;;;;;;;;;;;;;;5098273;28;19966;-77
2022/08/25 06:25:08;;;;;;;;;;;;;;;;;;5098276;28;20326;-76
2022/08/25 06:27:33;;;;;;;;;;;;;;;;;;5098200;28;19923;-77
2022/08/25 06:30:03;;;;;;;;;;;;;;;;;;5116631;28;19927;-77
2022/08/25 06:32:30;;;;;;;;;;;;;;;;;;5116299;28;19998;-77
2022/08/25 06:34:57;;;;;;;;;;;;;;;;;;5116375;28;19916;-77
2022/08/25 06:37:22;;;;;;;;;;;;;;;;;;5116280;28;20303;-77
2022/08/25 06:39:48;;;;;;;;;;;;;;;;;;5116173;28;19929;-77
2022/08/25 06:42:13;;;;;;;;;;;;;;;;;;5116271;28;19972;-77
2022/08/25 06:44:39;;;;;;;;;;;;;;;;;;5097813;28;19916;-77
2022/08/25 06:47:05;;;;;;;;;;;;;;;;;;5097605;28;19978;-77
2022/08/25 06:49:30;;;;;;;;;;;;;;;;;;5097954;28;19916;-77
2022/08/25 06:51:55;;;;;;;;;;;;;;;;;;5116401;28;20309;-77
2022/08/25 06:54:21;;;;;;;;;;;;;;;;;;5097667;28;20270;-77
2022/08/25 06:56:46;;;;;;;;;;;;;;;;;;5097644;28;19964;-75
2022/08/25 06:59:12;;;;;;;;;;;;;;;;;;5096715;28;19915;-77
2022/08/25 07:01:37;;;;;;;;;;;;;;;;;;5115342;28;20337;-77
2022/08/25 07:04:03;;;;;;;;;;;;;;;;;;5116221;28;19923;-78
2022/08/25 07:06:30;;;;;;;;;;;;;;;;;;5115588;28;19916;-77
2022/08/25 07:08:55;;;;;;;;;;;;;;;;;;5097519;28;20010;-77
2022/08/25 07:11:21;;;;;;;;;;;;;;;;;;5097404;28;19989;-77
2022/08/25 07:13:46;;;;;;;;;;;;;;;;;;5097218;28;19965;-76
2022/08/25 07:16:14;;;;;;;;;;;;;;;;;;5096889;28;19994;-77
2022/08/25 07:18:39;;;;;;;;;;;;;;;;;;5097780;28;19916;-77
2022/08/25 07:21:04;;;;;;;;;;;;;;;;;;5097273;28;19945;-77
2022/08/25 07:23:30;;;;;;;;;;;;;;;;;;5097105;28;19915;-77
2022/08/25 07:25:55;;;;;;;;;;;;;;;;;;5097153;28;20349;-77
2022/08/25 07:28:21;;;;;;;;;;;;;;;;;;5096950;28;19927;-77
2022/08/25 07:30:46;;;;;;;;;;;;;;;;;;5079350;28;19917;-77
2022/08/25 07:33:11;;;;;;;;;;;;;;;;;;5078598;28;19980;-77
2022/08/25 07:35:37;;;;;;;;;;;;;;;;;;5095167;28;19916;-77
2022/08/25 07:38:03;;;;;;;;;;;;;;;;;;5113410;28;19915;-77
2022/08/25 07:40:30;;;;;;;;;;;;;;;;;;5095605;28;20102;-77
2022/08/25 07:42:57;;;;;;;;;;;;;;;;;;5113354;28;19922;-78
2022/08/25 07:45:29;;;;;;;;;;;;;;;;;;5113041;28;20396;-76
2022/08/25 07:47:58;;;;;;;;;;;;;;;;;;5096235;28;19916;-76
2022/08/25 07:50:24;;;;;;;;;;;;;;;;;;5114218;28;19980;-77
2022/08/25 07:52:50;;;;;;;;;;;;;;;;;;5114703;28;20333;-77
2022/08/25 07:55:15;;;;;;;;;;;;;;;;;;5114886;28;19916;-75
2022/08/25 07:57:41;;;;;;;;;;;;;;;;;;5114760;28;19922;-76
2022/08/25 08:00:07;;;;;;;;;;;;;;;;;;5114420;28;19959;-78
2022/08/25 08:02:32;;;;;;;;;;;;;;;;;;5096710;28;19916;-78
2022/08/25 08:04:57;;;;;;;;;;;;;;;;;;5096636;28;19918;-78
2022/08/25 08:07:23;;;;;;;;;;;;;;;;;;5096451;28;19958;-77
2022/08/25 08:09:49;;;;;;;;;;;;;;;;;;5097519;28;20006;-77
2022/08/25 08:12:14;;;;;;;;;;;;;;;;;;5103078;28;20022;-78
2022/08/25 08:14:40;;;;;;;;;;;;;;;;;;5121335;28;20006;-78
2022/08/25 08:17:06;;;;;;;;;;;;;;;;;;5103368;28;20249;-78
2022/08/25 08:19:31;;;;;;;;;;;;;;;;;;5103065;28;19915;-77
2022/08/25 08:21:56;;;;;;;;;;;;;;;;;;5122004;28;20257;-79
2022/08/25 08:24:22;;;;;;;;;;;;;;;;;;5086630;28;19916;-78
2022/08/25 08:26:47;;;;;;;;;;;;;;;;;;5121297;28;19916;-78
2022/08/25 08:29:13;;;;;;;;;;;;;;;;;;5102668;28;19923;-77
2022/08/25 08:31:38;;;;;;;;;;;;;;;;;;5121335;28;19922;-77
2022/08/25 08:34:04;;;;;;;;;;;;;;;;;;5121159;28;19916;-78
2022/08/25 08:36:30;;;;;;;;;;;;;;;;;;5121344;28;19916;-78
2022/08/25 08:38:55;;;;;;;;;;;;;;;;;;5121152;28;19915;-77
2022/08/25 08:44:07;;;;;;;;;;;;;;;;;;5121238;28;19934;-77
2022/08/25 08:46:36;;;;;;;;;;;;;;;;;;5102679;28;19915;-78
2022/08/25 08:49:04;;;;;;;;;;;;;;;;;;5102937;28;19916;-78
2022/08/25 08:51:30;;;;;;;;;;;;;;;;;;5086012;28;19916;-78
2022/08/25 08:54:08;;;;;;;;;;;;;;;;;;5085974;28;19939;-78
2022/08/25 08:56:35;;;;;;;;;;;;;;;;;;5120307;28;19915;-83
2022/08/25 08:59:00;;;;;;;;;;;;;;;;;;5086126;28;19999;-85
2022/08/25 09:01:46;;;;;;;;;;;;;;;;;;5120830;28;19967;-85
2022/08/25 09:04:17;;;;;;;;;;;;;;;;;;5089494;28;19915;-88
2022/08/25 09:06:43;;;;;;;;;;;;;;;;;;5086229;28;19940;-85
2022/08/25 09:09:10;;;;;;;;;;;;;;;;;;5086199;28;19947;-91
2022/08/25 09:11:45;;;;;;;;;;;;;;;;;;5103142;28;19923;-85
2022/08/25 09:14:13;;;;;;;;;;;;;;;;;;5102939;28;19964;-83
2022/08/25 09:16:53;;;;;;;;;;;;;;;;;;5120878;28;19923;-85
2022/08/25 09:19:37;;;;;;;;;;;;;;;;;;5103166;28;19915;-85
2022/08/25 09:22:10;;;;;;;;;;;;;;;;;;5118610;28;19911;-85
2022/08/25 09:24:49;;;;;;;;;;;;;;;;;;5099908;28;19916;-82
2022/08/25 09:27:23;;;;;;;;;;;;;;;;;;5082614;28;19943;-84
2022/08/25 09:29:59;;;;;;;;;;;;;;;;;;5117959;28;19961;-84
2022/08/25 09:32:25;;;;;;;;;;;;;;;;;;5099662;28;19972;-82
2022/08/25 09:34:51;;;;;;;;;;;;;;;;;;5099652;28;20309;-83
2022/08/25 09:37:16;;;;;;;;;;;;;;;;;;5099501;28;19954;-86
2022/08/25 09:39:42;;;;;;;;;;;;;;;;;;5100263;28;19958;-84
2022/08/25 09:42:07;;;;;;;;;;;;;;;;;;5082480;28;20241;-78
2022/08/25 09:44:35;;;;;;;;;;;;;;;;;;5117226;28;19915;-81
2022/08/25 09:47:04;;;;;;;;;;;;;;;;;;5082317;28;19923;-85
2022/08/25 09:49:31;;;;;;;;;;;;;;;;;;5099104;28;19916;-84
2022/08/25 09:51:56;;;;;;;;;;;;;;;;;;5117104;28;19922;-87
2022/08/25 09:54:23;;;;;;;;;;;;;;;;;;5081371;28;20351;-89
2022/08/25 09:57:00;;;;;;;;;;;;;;;;;;5082361;28;19939;-85
2022/08/25 09:59:27;;;;;;;;;;;;;;;;;;5082503;28;20311;-84
2022/08/25 10:01:53;;;;;;;;;;;;;;;;;;5100244;28;20011;-85
2022/08/25 10:04:27;;;;;;;;;;;;;;;;;;5083687;28;19938;-87
2022/08/25 10:06:53;;;;;;;;;;;;;;;;;;5099928;28;19915;-85
2022/08/25 10:09:28;;;;;;;;;;;;;;;;;;5098214;28;19998;-83
2022/08/25 10:11:53;;;;;;;;;;;;;;;;;;5098643;28;19952;-83
2022/08/25 10:14:25;;;;;;;;;;;;;;;;;;5099010;28;20405;-83
2022/08/25 10:16:50;;;;;;;;;;;;;;;;;;5098218;28;20258;-83
2022/08/25 10:19:15;;;;;;;;;;;;;;;;;;5098395;28;19916;-82
2022/08/25 10:21:41;;;;;;;;;;;;;;;;;;5116576;28;19916;-83
2022/08/25 10:24:10;;;;;;;;;;;;;;;;;;5098183;28;19923;-82
2022/08/25 10:26:54;;;;;;;;;;;;;;;;;;5081724;28;20321;-84
2022/08/25 10:29:32;;;;;;;;;;;;;;;;;;5098280;28;19918;-84
2022/08/25 10:32:04;;;;;;;;;;;;;;;;;;5116377;28;20060;-84
2022/08/25 10:34:44;;;;;;;;;;;;;;;;;;5098575;28;19912;-83
2022/08/25 10:37:28;;;;;;;;;;;;;;;;;;5097975;28;19929;-84
2022/08/25 10:40:01;;;;;;;;;;;;;;;;;;5098016;28;19915;-83
2022/08/25 10:42:35;;;;;;;;;;;;;;;;;;5081485;28;20267;-85
2022/08/25 10:47:59;;;;;;;;;;;;;;;;;;5102376;28;19958;-83
2022/08/25 10:50:28;;;;;;;;;;;;;;;;;;5098237;28;20068;-82
2022/08/25 10:52:59;;;;;;;;;;;;;;;;;;5116323;28;19962;-82
2022/08/25 10:55:28;;;;;;;;;;;;;;;;;;5081543;28;19916;-83
2022/08/25 10:57:59;;;;;;;;;;;;;;;;;;5103348;28;20345;-82
2022/08/25 11:00:25;;;;;;;;;;;;;;;;;;5105938;28;19919;-83
2022/08/25 11:02:54;;;;;;;;;;;;;;;;;;5108726;28;19914;-84
2022/08/25 11:05:24;;;;;;;;;;;;;;;;;;5108608;28;19920;-83
2022/08/25 11:07:50;;;;;;;;;;;;;;;;;;5117237;28;19920;-84
2022/08/25 11:10:20;;;;;;;;;;;;;;;;;;5119205;28;19923;-84
2022/08/25 11:12:48;;;;;;;;;;;;;;;;;;5101797;28;19954;-83
2022/08/25 11:15:17;;;;;;;;;;;;;;;;;;5119736;28;20349;-84
2022/08/25 11:17:46;;;;;;;;;;;;;;;;;;5105632;28;19919;-83
2022/08/25 11:20:16;;;;;;;;;;;;;;;;;;5115864;28;20067;-82
2022/08/25 11:22:42;;;;;;;;;;;;;;;;;;5080381;28;19941;-84
2022/08/25 11:25:17;;;;;;;;;;;;;;;;;;5097720;28;19954;-82
2022/08/25 11:28:03;;;;;;;;;;;;;;;;;;5097482;28;20339;-85
2022/08/25 11:30:28;;;;;;;;;;;;;;;;;;5056303;28;19923;-82
2022/08/25 11:32:53;;;;;;;;;;;;;;;;;;5080308;28;19916;-82
2022/08/25 11:35:28;;;;;;;;;;;;;;;;;;5096899;28;19916;-82
2022/08/25 11:38:03;;;;;;;;;;;;;;;;;;5114976;28;19916;-81
2022/08/25 11:40:48;;;;;;;;;;;;;;;;;;5115049;28;19919;-82
2022/08/25 11:43:21;;;;;;;;;;;;;;;;;;5114996;28;20390;-81
2022/08/25 11:45:53;;;;;;;;;;;;;;;;;;5096590;28;19915;-81
2022/08/25 11:48:34;;;;;;;;;;;;;;;;;;5080555;28;20303;-81
2022/08/25 11:51:02;;;;;;;;;;;;;;;;;;5114859;28;20018;-82
2022/08/25 11:53:37;;;;;;;;;;;;;;;;;;5096752;28;19916;-83
2022/08/25 11:56:04;;;;;;;;;;;;;;;;;;5096643;28;19916;-81
2022/08/25 11:58:31;;;;;;;;;;;;;;;;;;5080389;28;20018;-82
2022/08/25 12:00:58;;;;;;;;;;;;;;;;;;5096484;28;20342;-83
2022/08/25 12:03:35;;;;;;;;;;;;;;;;;;5096616;28;20025;-82
2022/08/25 12:06:14;;;;;;;;;;;;;;;;;;5114567;28;19911;-82
2022/08/25 12:08:58;;;;;;;;;;;;;;;;;;5080246;28;19923;-82
2022/08/25 12:11:43;;;;;;;;;;;;;;;;;;5115101;28;20010;-82
2022/08/25 12:14:11;;;;;;;;;;;;;;;;;;5096927;28;19915;-82
2022/08/25 12:16:38;;;;;;;;;;;;;;;;;;5097055;28;20915;-82
2022/08/25 12:19:33;;;;;;;;;;;;;;;;;;5114658;28;20424;-82
2022/08/25 12:22:01;;;;;;;;;;;;;;;;;;5092423;28;20057;-83
2022/08/25 12:24:42;;;;;;;;;;;;;;;;;;5114684;28;20004;-82
2022/08/25 12:27:22;;;;;;;;;;;;;;;;;;5114679;28;19915;-82
2022/08/25 12:29:59;;;;;;;;;;;;;;;;;;5114658;28;19916;-81
2022/08/25 12:32:43;;;;;;;;;;;;;;;;;;5114748;28;19916;-82
2022/08/25 12:35:23;;;;;;;;;;;;;;;;;;5096246;28;19916;-82
2022/08/25 12:37:53;;;;;;;;;;;;;;;;;;5114569;28;19916;-82
2022/08/25 12:40:23;;;;;;;;;;;;;;;;;;5079571;28;19939;-84
2022/08/25 12:42:48;;;;;;;;;;;;;;;;;;5079216;28;20018;-82
2022/08/25 12:45:14;;;;;;;;;;;;;;;;;;5095914;28;20067;-81
2022/08/25 12:47:41;;;;;;;;;;;;;;;;;;5096066;28;19973;-84
2022/08/25 12:50:25;;;;;;;;;;;;;;;;;;5095907;28;20289;-82
2022/08/25 12:52:51;;;;;;;;;;;;;;;;;;5096240;28;20061;-83
2022/08/25 12:55:16;;;;;;;;;;;;;;;;;;5096088;28;19951;-84
2022/08/25 12:57:41;;;;;;;;;;;;;;;;;;5080887;28;19927;-84
2022/08/25 13:00:15;;;;;;;;;;;;;;;;;;5099857;28;19920;-83
2022/08/25 13:02:52;;;;;;;;;;;;;;;;;;5083161;28;20353;-82
2022/08/25 13:05:17;;;;;;;;;;;;;;;;;;5117839;28;19919;-83
2022/08/25 13:07:49;;;;;;;;;;;;;;;;;;5117938;28;19981;-80
2022/08/25 13:10:17;;;;;;;;;;;;;;;;;;5099874;28;19919;-82
2022/08/25 13:12:50;;;;;;;;;;;;;;;;;;5082985;28;20250;-82
2022/08/25 13:15:48;;;;;;;;;;;;;;;;;;5082819;28;19916;-82
2022/08/25 13:18:18;;;;;;;;;;;;;;;;;;5054898;28;19920;-82
2022/08/25 13:20:43;;;;;;;;;;;;;;;;;;5099539;28;20318;-84
2022/08/25 13:23:09;;;;;;;;;;;;;;;;;;5082663;28;19923;-80
2022/08/25 13:25:34;;;;;;;;;;;;;;;;;;5082619;28;20302;-79
2022/08/25 13:28:00;;;;;;;;;;;;;;;;;;5082615;28;19916;-79
2022/08/25 13:30:30;;;;;;;;;;;;;;;;;;5082866;28;19974;-79
2022/08/25 13:32:55;;;;;;;;;;;;;;;;;;5099251;28;19916;-81
2022/08/25 13:35:31;;;;;;;;;;;;;;;;;;5099409;28;19939;-81
2022/08/25 13:38:15;;;;;;;;;;;;;;;;;;5082647;28;19930;-82
2022/08/25 13:40:41;;;;;;;;;;;;;;;;;;5099125;28;19919;-81
2022/08/25 13:43:07;;;;;;;;;;;;;;;;;;5099223;28;19915;-81
2022/08/25 13:45:40;;;;;;;;;;;;;;;;;;5082747;28;19916;-82
2022/08/25 13:48:05;;;;;;;;;;;;;;;;;;5116956;28;19916;-81
2022/08/25 13:50:35;;;;;;;;;;;;;;;;;;5117253;28;19916;-81
2022/08/25 13:53:01;;;;;;;;;;;;;;;;;;5099060;28;19916;-81
2022/08/25 13:55:32;;;;;;;;;;;;;;;;;;5117180;28;19922;-82
2022/08/25 13:57:57;;;;;;;;;;;;;;;;;;5098922;28;19923;-82
2022/08/25 14:00:46;;;;;;;;;;;;;;;;;;5116813;28;19920;-82
2022/08/25 14:03:30;;;;;;;;;;;;;;;;;;5069282;28;20333;-81
2022/08/25 14:06:08;;;;;;;;;;;;;;;;;;5116963;28;19969;-81
2022/08/25 14:08:35;;;;;;;;;;;;;;;;;;5098058;28;20277;-81
2022/08/25 14:11:11;;;;;;;;;;;;;;;;;;5098553;28;19920;-81
2022/08/25 14:13:36;;;;;;;;;;;;;;;;;;5098604;28;19918;-81
2022/08/25 14:16:06;;;;;;;;;;;;;;;;;;5081797;28;19920;-82
2022/08/25 14:18:31;;;;;;;;;;;;;;;;;;5098600;28;19916;-81
2022/08/25 14:20:57;;;;;;;;;;;;;;;;;;5098454;28;19922;-81
2022/08/25 14:23:24;;;;;;;;;;;;;;;;;;5081769;28;19916;-81
2022/08/25 14:25:50;;;;;;;;;;;;;;;;;;5098441;28;19924;-81
2022/08/25 14:28:16;;;;;;;;;;;;;;;;;;5098091;28;19920;-82
2022/08/25 14:30:46;;;;;;;;;;;;;;;;;;5098008;28;20390;-81
2022/08/25 14:33:11;;;;;;;;;;;;;;;;;;5098146;28;19994;-81
2022/08/25 14:35:36;;;;;;;;;;;;;;;;;;5116125;28;20328;-81
2022/08/25 14:38:03;;;;;;;;;;;;;;;;;;5098429;28;19965;-81
2022/08/25 14:40:29;;;;;;;;;;;;;;;;;;5097893;28;20371;-82
2022/08/25 14:42:54;;;;;;;;;;;;;;;;;;5081149;28;19916;-81
2022/08/25 14:45:20;;;;;;;;;;;;;;;;;;5115795;28;19916;-82
2022/08/25 14:47:45;;;;;;;;;;;;;;;;;;5098016;28;19916;-81
2022/08/25 14:50:10;;;;;;;;;;;;;;;;;;5097861;28;19924;-82
2022/08/25 14:52:36;;;;;;;;;;;;;;;;;;5098193;28;19916;-80
2022/08/25 14:55:01;;;;;;;;;;;;;;;;;;5115929;28;20369;-81
2022/08/25 14:57:26;;;;;;;;;;;;;;;;;;5081354;28;20321;-82
2022/08/25 14:59:52;;;;;;;;;;;;;;;;;;5097289;28;19949;-82
2022/08/25 15:02:18;;;;;;;;;;;;;;;;;;5115697;28;19916;-82
2022/08/25 15:04:51;;;;;;;;;;;;;;;;;;5097771;28;19924;-82
2022/08/25 15:10:01;;;;;;;;;;;;;;;;;;5100262;28;19939;-82
2022/08/25 15:12:26;;;;;;;;;;;;;;;;;;5097522;28;20334;-82
2022/08/25 15:14:51;;;;;;;;;;;;;;;;;;5080441;28;20318;-82
2022/08/25 15:17:17;;;;;;;;;;;;;;;;;;5097647;28;19972;-82
2022/08/25 15:19:42;;;;;;;;;;;;;;;;;;5096711;28;19924;-82
2022/08/25 15:22:08;;;;;;;;;;;;;;;;;;5097190;28;20329;-82
2022/08/25 15:24:33;;;;;;;;;;;;;;;;;;5115457;28;19988;-83
2022/08/25 15:26:59;;;;;;;;;;;;;;;;;;5115378;28;19919;-83
2022/08/25 15:29:26;;;;;;;;;;;;;;;;;;5080191;28;20314;-82
2022/08/25 15:31:51;;;;;;;;;;;;;;;;;;5097458;28;19951;-82
2022/08/25 15:34:16;;;;;;;;;;;;;;;;;;5097134;28;19972;-80
2022/08/25 15:36:42;;;;;;;;;;;;;;;;;;5097134;28;20003;-82
2022/08/25 15:39:07;;;;;;;;;;;;;;;;;;5097265;28;19973;-82
2022/08/25 15:41:35;;;;;;;;;;;;;;;;;;5097193;28;19916;-82
2022/08/25 15:44:01;;;;;;;;;;;;;;;;;;5114935;28;19916;-82
2022/08/25 15:46:28;;;;;;;;;;;;;;;;;;5097947;28;20331;-82
2022/08/25 15:48:54;;;;;;;;;;;;;;;;;;5101070;28;19920;-82
2022/08/25 15:51:19;;;;;;;;;;;;;;;;;;5115809;28;19923;-82
2022/08/25 15:53:45;;;;;;;;;;;;;;;;;;5114970;28;20002;-82
2022/08/25 15:56:14;;;;;;;;;;;;;;;;;;5096786;28;20226;-82
2022/08/25 15:58:40;;;;;;;;;;;;;;;;;;5080582;28;19915;-82
2022/08/25 16:01:06;;;;;;;;;;;;;;;;;;5080251;28;20241;-82
2022/08/25 16:03:31;;;;;;;;;;;;;;;;;;5096944;28;19920;-82
2022/08/25 16:05:56;;;;;;;;;;;;;;;;;;5096935;28;19916;-82
2022/08/25 16:08:21;;;;;;;;;;;;;;;;;;5079972;28;19923;-82
2022/08/25 16:10:47;;;;;;;;;;;;;;;;;;5080097;28;19916;-83
2022/08/25 16:13:12;;;;;;;;;;;;;;;;;;5096542;28;19923;-83
2022/08/25 16:15:38;;;;;;;;;;;;;;;;;;5114708;28;19916;-82
2022/08/25 16:18:03;;;;;;;;;;;;;;;;;;5096786;28;19922;-82
2022/08/25 16:20:29;;;;;;;;;;;;;;;;;;5114970;28;19979;-82
2022/08/25 16:22:54;;;;;;;;;;;;;;;;;;5096925;28;19922;-82
2022/08/25 16:25:20;;;;;;;;;;;;;;;;;;5114663;28;20345;-81
2022/08/25 16:27:45;;;;;;;;;;;;;;;;;;5079143;28;19922;-82
2022/08/25 16:30:11;;;;;;;;;;;;;;;;;;5079768;28;19920;-82
2022/08/25 16:32:36;;;;;;;;;;;;;;;;;;5099944;28;20336;-82
2022/08/25 16:35:03;;;;;;;;;;;;;;;;;;5118927;28;20281;-81
2022/08/25 16:37:28;;;;;;;;;;;;;;;;;;5083438;28;19916;-81
2022/08/25 16:39:54;;;;;;;;;;;;;;;;;;5083724;28;20258;-81
2022/08/25 16:42:19;;;;;;;;;;;;;;;;;;5083606;28;20006;-82
2022/08/25 16:44:44;;;;;;;;;;;;;;;;;;5100331;28;19922;-81
2022/08/25 16:47:11;;;;;;;;;;;;;;;;;;5118489;28;19955;-82
2022/08/25 16:49:36;;;;;;;;;;;;;;;;;;5083579;28;20317;-82
2022/08/25 16:55:11;;;;;;;;;;;;;;;;;;5100124;28;19969;-81
2022/08/25 16:57:31;;;;;;;;;;;;;;;;;;5118314;28;19965;-81
2022/08/25 16:59:56;;;;;;;;;;;;;;;;;;5099897;28;19924;-81
2022/08/25 17:02:21;;;;;;;;;;;;;;;;;;5118659;28;19922;-82